Nearby METAR Reports

 

EGUW - Wattisham Raf, United Kingdom
Distance from station: SW 12mi, 19km
Updated: 22/01/2020 11:50
Mist, Mostly cloudy
Mist, Mostly cloudy
 Wind from N
Wind: N 3 mph , 6 km/h
Temperature: 6°C
Dew Point: 6°C
Humidity: 100%
Barometer: 1037 hPa
Summary: Mist
Clouds: Mostly cloudy
Visibility: 1 mile , 2 km
Cloud details: Mostly cloudy 61 m
Mostly cloudy 427 m
2020/01/22 11:50 EGUW 221150Z 36003KT 2000 BR BKN002 BKN014 06/06 Q1037 BECMG 4000 BR BKN004 RMK AMB BECMG YLO2
EGUL - Lakenheath Raf, United Kingdom
Distance from station: WNW 29mi, 47km
Updated: 22/01/2020 09:56
NOT Current
Mist, Mostly cloudy
Mist, Mostly cloudy
 Wind from calm
Wind: Calm
Temperature: 4°C
Dew Point: 4°C
Humidity: 100%
Barometer: 1037.3 hPa
Summary: Mist
Clouds: Mostly cloudy
Visibility: 1 mile , 1 km
Cloud details: Mostly cloudy 61 m
2020/01/22 09:56 EGUL 220956Z 00000KT 1400 R06/P1500 BR BKN002 04/04 A3063 RMK AO2A SLP376 T00410041 $
 
EGUN - Mildenhall Raf, United Kingdom
Distance from station: WNW 32mi, 51km
Updated: 22/01/2020 09:56
NOT Current
Mist, Overcast
Mist, Overcast
 Wind from W
Wind: W 2 mph , 4 km/h
Temperature: 5°C
Dew Point: 4°C
Humidity: 93%
Barometer: 1037.9 hPa
Summary: Mist
Clouds: Overcast
Visibility: 1 mile , 1 km
Cloud details: Overcast 61 m
2020/01/22 09:56 EGUN 220956Z 28002KT 1200 BR VV002 05/04 A3065 RMK SLPNO WND DATA ESTMD ALSTG ESTMD RVRNO $
EGSH - Norwich Wea Cntr, United Kingdom
Distance from station: N 32mi, 52km
Updated: 22/01/2020 11:50
Mist, Mostly cloudy
Mist, Mostly cloudy
 Wind from varies
Wind: varies 2 mph , 4 km/h
Temperature: 8°C
Dew Point: 7°C
Humidity: 93%
Barometer: 1037 hPa
Summary: Mist
Clouds: Mostly cloudy
Visibility: 2 miles , 3 km
Cloud details: Mostly cloudy 396 m
2020/01/22 11:50 EGSH 221150Z VRB02KT 3000 BR BKN013 08/07 Q1037 NOSIG
 
EGYM - Marham Raf, United Kingdom
Distance from station: NW 39mi, 62km
Updated: 22/01/2020 11:50
Mist, Mostly cloudy
Mist, Mostly cloudy
 Wind from N
Wind: N 5 mph , 7 km/h
Temperature: 6°C
Wind Chill: 4°C
Dew Point: 6°C
Humidity: 100%
Barometer: 1037 hPa
Summary: Mist
Clouds: Mostly cloudy
Visibility: 1 mile , 2 km
Cloud details: Mostly cloudy 91 m
2020/01/22 11:50 EGYM 221150Z 35004KT 2000 BR BKN003 06/06 Q1037 NOSIG RMK YLO2 YLO2
EGSC - Cambridge, United Kingdom
Distance from station: W 43mi, 69km
Updated: 22/01/2020 11:50
Mist, Mostly cloudy
Mist, Mostly cloudy
 Wind from varies
Wind: varies 3 mph , 6 km/h
Temperature: 7°C
Dew Point: 6°C
Humidity: 93%
Barometer: 1037 hPa
Summary: Mist
Clouds: Mostly cloudy
Visibility: 1 mile , 2 km
Cloud details: Mostly cloudy 91 m
2020/01/22 11:50 EGSC 221150Z VRB03KT 2200 BR BKN003 07/06 Q1037
 
EGSS - Stansted Airport, United Kingdom
Distance from station: WSW 47mi, 76km
Updated: 22/01/2020 11:50
Mist, Overcast
Mist, Overcast
 Wind from varies
Wind: varies 3 mph , 6 km/h
Temperature: 6°C
Dew Point: 6°C
Humidity: 100%
Barometer: 1037 hPa
Summary: Mist
Clouds: Overcast
Visibility: 1 mile , 1 km
Cloud details: Mostly cloudy 30 m
Overcast 274 m
2020/01/22 11:50 EGSS 221150Z AUTO VRB03KT 1400 R04/P1500 BR BKN001 OVC009 06/06 Q1037
EGMC - Southend-On-Sea, United Kingdom
Distance from station: SSW 50mi, 80km
Updated: 22/01/2020 11:50
Mist, Mostly cloudy
Mist, Mostly cloudy
 Wind from varies
Wind: varies 2 mph , 4 km/h
Temperature: 6°C
Dew Point: 6°C
Humidity: 100%
Barometer: 1037 hPa
Summary: Mist
Clouds: Mostly cloudy
Visibility: 2 miles , 3 km
Cloud details: Mostly cloudy 122 m
2020/01/22 11:50 EGMC 221150Z VRB02KT 3000 BR BKN004 06/06 Q1037